Time;durP1;ratioP1;P1;durP2;ratioP2;P2;SDS_P1;SDS_P2;PMS_P1;PMS_P2;Temp;Humidity;BMP_temperature;BMP_pressure;BME280_temperature;BME280_humidity;BME280_pressure;Samples;Min_cycle;Max_cycle;Signal;HPM_P1;HPM_P2
2021/10/13 00:00:51;;;;;;;;;;;;;;;;;;5067192;28;19948;-72
2021/10/13 00:03:18;;;;;;;;;;;;;;;;;;5070172;28;19966;-73
2021/10/13 00:05:45;;;;;;;;;;;;;;;;;;5069558;28;20261;-74
2021/10/13 00:08:12;;;;;;;;;;;;;;;;;;5072264;28;19931;-72
2021/10/13 00:10:39;;;;;;;;;;;;;;;;;;5072113;28;19924;-73
2021/10/13 00:13:06;;;;;;;;;;;;;;;;;;5068468;28;19932;-72
2021/10/13 00:15:33;;;;;;;;;;;;;;;;;;5062094;28;20651;-73
2021/10/13 00:18:00;;;;;;;;;;;;;;;;;;5066164;28;20254;-73
2021/10/13 00:20:27;;;;;;;;;;;;;;;;;;5071303;28;19934;-73
2021/10/13 00:22:54;;;;;;;;;;;;;;;;;;5069382;28;20334;-75
2021/10/13 00:25:21;;;;;;;;;;;;;;;;;;5062333;28;19928;-73
2021/10/13 00:27:48;;;;;;;;;;;;;;;;;;5067356;28;20000;-74
2021/10/13 00:30:15;;;;;;;;;;;;;;;;;;5068097;28;19924;-73
2021/10/13 00:32:42;;;;;;;;;;;;;;;;;;5074512;28;20017;-73
2021/10/13 00:35:09;;;;;;;;;;;;;;;;;;5067599;28;19935;-73
2021/10/13 00:37:36;;;;;;;;;;;;;;;;;;5067349;28;19925;-73
2021/10/13 00:40:03;;;;;;;;;;;;;;;;;;5067242;28;20003;-73
2021/10/13 00:42:29;;;;;;;;;;;;;;;;;;5072206;28;19924;-72
2021/10/13 00:44:56;;;;;;;;;;;;;;;;;;5063696;28;19924;-73
2021/10/13 00:47:23;;;;;;;;;;;;;;;;;;5073353;28;19930;-72
2021/10/13 00:49:50;;;;;;;;;;;;;;;;;;5071742;28;19931;-72
2021/10/13 00:52:17;;;;;;;;;;;;;;;;;;5066172;28;20039;-73
2021/10/13 00:54:44;;;;;;;;;;;;;;;;;;5060774;28;19924;-73
2021/10/13 00:57:11;;;;;;;;;;;;;;;;;;5066608;28;19938;-73
2021/10/13 00:59:38;;;;;;;;;;;;;;;;;;5066380;28;20344;-72
2021/10/13 01:02:05;;;;;;;;;;;;;;;;;;5065589;28;19924;-72
2021/10/13 01:04:32;;;;;;;;;;;;;;;;;;5062829;28;20007;-73
2021/10/13 01:06:59;;;;;;;;;;;;;;;;;;5064074;28;19934;-73
2021/10/13 01:09:26;;;;;;;;;;;;;;;;;;5060141;28;19924;-74
2021/10/13 01:11:53;;;;;;;;;;;;;;;;;;5063280;28;19924;-73
2021/10/13 01:14:20;;;;;;;;;;;;;;;;;;5069871;28;19935;-73
2021/10/13 01:16:47;;;;;;;;;;;;;;;;;;5060110;28;19929;-73
2021/10/13 01:19:14;;;;;;;;;;;;;;;;;;5063142;28;20373;-73
2021/10/13 01:21:41;;;;;;;;;;;;;;;;;;5060654;28;19924;-72
2021/10/13 01:24:08;;;;;;;;;;;;;;;;;;5061433;28;19924;-72
2021/10/13 01:26:35;;;;;;;;;;;;;;;;;;5075533;28;19931;-72
2021/10/13 01:29:02;;;;;;;;;;;;;;;;;;5074611;28;19925;-71
2021/10/13 01:31:29;;;;;;;;;;;;;;;;;;5064471;28;20003;-74
2021/10/13 01:33:56;;;;;;;;;;;;;;;;;;5066526;28;20284;-73
2021/10/13 01:36:23;;;;;;;;;;;;;;;;;;5066756;28;19924;-73
2021/10/13 01:38:50;;;;;;;;;;;;;;;;;;5069608;28;20082;-73
2021/10/13 01:41:17;;;;;;;;;;;;;;;;;;5063848;28;19928;-71
2021/10/13 01:43:44;;;;;;;;;;;;;;;;;;5065269;28;19925;-73
2021/10/13 01:46:11;;;;;;;;;;;;;;;;;;5065245;28;19928;-73
2021/10/13 01:48:38;;;;;;;;;;;;;;;;;;5060270;28;19924;-73
2021/10/13 01:51:05;;;;;;;;;;;;;;;;;;5068990;28;19925;-73
2021/10/13 01:53:32;;;;;;;;;;;;;;;;;;5062390;28;20797;-74
2021/10/13 01:55:59;;;;;;;;;;;;;;;;;;5061898;28;20423;-74
2021/10/13 01:58:26;;;;;;;;;;;;;;;;;;5067479;28;20007;-71
2021/10/13 02:00:53;;;;;;;;;;;;;;;;;;5067153;28;20437;-72
2021/10/13 02:03:20;;;;;;;;;;;;;;;;;;5067666;28;19981;-73
2021/10/13 02:05:47;;;;;;;;;;;;;;;;;;5060200;28;20303;-72
2021/10/13 02:08:14;;;;;;;;;;;;;;;;;;5059253;28;20334;-72
2021/10/13 02:10:41;;;;;;;;;;;;;;;;;;5062802;28;20300;-72
2021/10/13 02:13:07;;;;;;;;;;;;;;;;;;5069331;28;19924;-71
2021/10/13 02:15:34;;;;;;;;;;;;;;;;;;5063587;28;20005;-73
2021/10/13 02:18:01;;;;;;;;;;;;;;;;;;5060457;28;19925;-73
2021/10/13 02:20:28;;;;;;;;;;;;;;;;;;5059208;28;19924;-71
2021/10/13 02:22:55;;;;;;;;;;;;;;;;;;5053445;28;19932;-71
2021/10/13 02:25:22;;;;;;;;;;;;;;;;;;5051250;28;19925;-72
2021/10/13 02:27:49;;;;;;;;;;;;;;;;;;5059015;28;19925;-72
2021/10/13 02:30:16;;;;;;;;;;;;;;;;;;5057918;28;20018;-72
2021/10/13 02:32:43;;;;;;;;;;;;;;;;;;5059581;28;19924;-72
2021/10/13 02:35:10;;;;;;;;;;;;;;;;;;5055104;28;20009;-71
2021/10/13 02:37:37;;;;;;;;;;;;;;;;;;5067903;28;19979;-74
2021/10/13 02:40:04;;;;;;;;;;;;;;;;;;5058852;28;19929;-73
2021/10/13 02:42:31;;;;;;;;;;;;;;;;;;5060216;28;19924;-75
2021/10/13 02:44:58;;;;;;;;;;;;;;;;;;5060409;28;19979;-72
2021/10/13 02:47:25;;;;;;;;;;;;;;;;;;5061113;28;19928;-74
2021/10/13 02:49:52;;;;;;;;;;;;;;;;;;5059273;28;19924;-72
2021/10/13 02:52:20;;;;;;;;;;;;;;;;;;5060992;28;19971;-72
2021/10/13 02:54:47;;;;;;;;;;;;;;;;;;5059281;28;19929;-73
2021/10/13 02:57:14;;;;;;;;;;;;;;;;;;5061748;28;19924;-72
2021/10/13 02:59:41;;;;;;;;;;;;;;;;;;5060307;28;19925;-72
2021/10/13 03:02:08;;;;;;;;;;;;;;;;;;5063408;28;19928;-72
2021/10/13 03:04:35;;;;;;;;;;;;;;;;;;5051420;28;19939;-72
2021/10/13 03:07:02;;;;;;;;;;;;;;;;;;5061714;28;19931;-73
2021/10/13 03:09:29;;;;;;;;;;;;;;;;;;5064843;28;19991;-72
2021/10/13 03:11:56;;;;;;;;;;;;;;;;;;5064464;28;19950;-73
2021/10/13 03:14:23;;;;;;;;;;;;;;;;;;5058716;28;20011;-73
2021/10/13 03:16:50;;;;;;;;;;;;;;;;;;5059753;28;20018;-73
2021/10/13 03:19:17;;;;;;;;;;;;;;;;;;5063393;28;20447;-73
2021/10/13 03:21:43;;;;;;;;;;;;;;;;;;5063679;28;19925;-73
2021/10/13 03:24:10;;;;;;;;;;;;;;;;;;5060288;28;19955;-71
2021/10/13 03:26:37;;;;;;;;;;;;;;;;;;5060493;28;20307;-73
2021/10/13 03:29:04;;;;;;;;;;;;;;;;;;5055511;28;20568;-72
2021/10/13 03:31:31;;;;;;;;;;;;;;;;;;5058457;28;19931;-72
2021/10/13 03:33:58;;;;;;;;;;;;;;;;;;5061138;28;19931;-72
2021/10/13 03:36:25;;;;;;;;;;;;;;;;;;5064950;28;20011;-72
2021/10/13 03:38:52;;;;;;;;;;;;;;;;;;5066418;28;19931;-72
2021/10/13 03:41:19;;;;;;;;;;;;;;;;;;5063021;28;20019;-73
2021/10/13 03:43:46;;;;;;;;;;;;;;;;;;5072714;28;19935;-70
2021/10/13 03:46:13;;;;;;;;;;;;;;;;;;5066625;28;19924;-70
2021/10/13 03:48:40;;;;;;;;;;;;;;;;;;5070344;28;19967;-68
2021/10/13 03:51:07;;;;;;;;;;;;;;;;;;5064238;28;19925;-71
2021/10/13 03:53:34;;;;;;;;;;;;;;;;;;5063404;28;20455;-69
2021/10/13 03:56:01;;;;;;;;;;;;;;;;;;5059322;28;19925;-71
2021/10/13 03:58:28;;;;;;;;;;;;;;;;;;5065191;28;19932;-68
2021/10/13 04:00:55;;;;;;;;;;;;;;;;;;5065450;28;20405;-69
2021/10/13 04:03:22;;;;;;;;;;;;;;;;;;5056946;28;19924;-70
2021/10/13 04:05:49;;;;;;;;;;;;;;;;;;5058445;28;19931;-75
2021/10/13 04:08:16;;;;;;;;;;;;;;;;;;5063285;28;20364;-69
2021/10/13 04:10:43;;;;;;;;;;;;;;;;;;5073072;28;19947;-69
2021/10/13 04:13:10;;;;;;;;;;;;;;;;;;5063997;28;19958;-70
2021/10/13 04:15:37;;;;;;;;;;;;;;;;;;5062973;28;19978;-70
2021/10/13 04:18:05;;;;;;;;;;;;;;;;;;5061750;28;20060;-71
2021/10/13 04:20:32;;;;;;;;;;;;;;;;;;5058350;28;20267;-69
2021/10/13 04:22:59;;;;;;;;;;;;;;;;;;5059806;28;20019;-70
2021/10/13 04:25:26;;;;;;;;;;;;;;;;;;5058865;28;20022;-69
2021/10/13 04:27:53;;;;;;;;;;;;;;;;;;5064848;28;20023;-71
2021/10/13 04:30:20;;;;;;;;;;;;;;;;;;5063411;28;19979;-70
2021/10/13 04:32:47;;;;;;;;;;;;;;;;;;5065008;28;19931;-70
2021/10/13 04:35:14;;;;;;;;;;;;;;;;;;5059449;28;20423;-70
2021/10/13 04:37:41;;;;;;;;;;;;;;;;;;5062811;28;19960;-72
2021/10/13 04:40:08;;;;;;;;;;;;;;;;;;5068772;28;20355;-69
2021/10/13 04:42:35;;;;;;;;;;;;;;;;;;5065098;28;20028;-71
2021/10/13 04:45:02;;;;;;;;;;;;;;;;;;5063443;28;20028;-71
2021/10/13 04:47:29;;;;;;;;;;;;;;;;;;5068851;28;19924;-70
2021/10/13 04:49:56;;;;;;;;;;;;;;;;;;5065600;28;20380;-70
2021/10/13 04:52:23;;;;;;;;;;;;;;;;;;5060793;28;19925;-69
2021/10/13 04:54:50;;;;;;;;;;;;;;;;;;5059204;28;19931;-70
2021/10/13 04:57:17;;;;;;;;;;;;;;;;;;5062447;28;20046;-70
2021/10/13 04:59:44;;;;;;;;;;;;;;;;;;5058219;28;19928;-70
2021/10/13 05:02:11;;;;;;;;;;;;;;;;;;5061215;28;19939;-71
2021/10/13 05:04:38;;;;;;;;;;;;;;;;;;5059410;28;19932;-70
2021/10/13 05:07:07;;;;;;;;;;;;;;;;;;5062488;28;19931;-69
2021/10/13 05:09:34;;;;;;;;;;;;;;;;;;5061111;28;19925;-72
2021/10/13 05:12:01;;;;;;;;;;;;;;;;;;5060079;28;19931;-68
2021/10/13 05:14:28;;;;;;;;;;;;;;;;;;5060626;28;20328;-72
2021/10/13 05:16:55;;;;;;;;;;;;;;;;;;5063163;28;19925;-71
2021/10/13 05:19:22;;;;;;;;;;;;;;;;;;5080683;28;20027;-73
2021/10/13 05:21:49;;;;;;;;;;;;;;;;;;5072176;28;19928;-71
2021/10/13 05:24:16;;;;;;;;;;;;;;;;;;5063559;28;19924;-71
2021/10/13 05:26:43;;;;;;;;;;;;;;;;;;5063541;28;19960;-73
2021/10/13 05:29:10;;;;;;;;;;;;;;;;;;5057579;28;20316;-70
2021/10/13 05:31:37;;;;;;;;;;;;;;;;;;5065227;28;20403;-72
2021/10/13 05:34:04;;;;;;;;;;;;;;;;;;5068353;28;19939;-70
2021/10/13 05:36:31;;;;;;;;;;;;;;;;;;5057688;28;19931;-72
2021/10/13 05:38:57;;;;;;;;;;;;;;;;;;5079772;28;20205;-69
2021/10/13 05:41:24;;;;;;;;;;;;;;;;;;5069049;28;19931;-73
2021/10/13 05:43:51;;;;;;;;;;;;;;;;;;5053502;28;19932;-72
2021/10/13 05:46:18;;;;;;;;;;;;;;;;;;5067126;28;20307;-73
2021/10/13 05:48:45;;;;;;;;;;;;;;;;;;5066432;28;19930;-70
2021/10/13 05:51:12;;;;;;;;;;;;;;;;;;5070625;28;19924;-68
2021/10/13 05:53:39;;;;;;;;;;;;;;;;;;5066153;28;20404;-74
2021/10/13 05:56:06;;;;;;;;;;;;;;;;;;5064262;28;20003;-68
2021/10/13 05:58:33;;;;;;;;;;;;;;;;;;5064027;28;20450;-68
2021/10/13 06:01:00;;;;;;;;;;;;;;;;;;5061454;28;20359;-69
2021/10/13 06:03:27;;;;;;;;;;;;;;;;;;5058124;28;19928;-69
2021/10/13 06:05:54;;;;;;;;;;;;;;;;;;5060905;28;19924;-68
2021/10/13 06:08:21;;;;;;;;;;;;;;;;;;5066349;28;20027;-69
2021/10/13 06:10:48;;;;;;;;;;;;;;;;;;5061408;28;19933;-67
2021/10/13 06:13:15;;;;;;;;;;;;;;;;;;5057896;28;20289;-67
2021/10/13 06:15:43;;;;;;;;;;;;;;;;;;5054342;28;19944;-68
2021/10/13 06:18:10;;;;;;;;;;;;;;;;;;5068263;28;19928;-69
2021/10/13 06:20:37;;;;;;;;;;;;;;;;;;5060677;28;19925;-68
2021/10/13 06:23:04;;;;;;;;;;;;;;;;;;5065102;28;19931;-71
2021/10/13 06:25:31;;;;;;;;;;;;;;;;;;5058700;28;20316;-70
2021/10/13 06:27:58;;;;;;;;;;;;;;;;;;5067975;28;19939;-69
2021/10/13 06:30:24;;;;;;;;;;;;;;;;;;5061664;28;19924;-70
2021/10/13 06:32:51;;;;;;;;;;;;;;;;;;5062006;28;19924;-69
2021/10/13 06:35:18;;;;;;;;;;;;;;;;;;5049242;28;19939;-69
2021/10/13 06:37:46;;;;;;;;;;;;;;;;;;5050068;28;19931;-68
2021/10/13 06:40:13;;;;;;;;;;;;;;;;;;5054600;28;20390;-68
2021/10/13 06:42:41;;;;;;;;;;;;;;;;;;5059229;28;19932;-67
2021/10/13 06:45:08;;;;;;;;;;;;;;;;;;5055697;28;20066;-70
2021/10/13 06:47:35;;;;;;;;;;;;;;;;;;5062541;28;20406;-70
2021/10/13 06:50:02;;;;;;;;;;;;;;;;;;5066162;28;20089;-70
2021/10/13 06:52:29;;;;;;;;;;;;;;;;;;5057099;28;20035;-70
2021/10/13 06:54:56;;;;;;;;;;;;;;;;;;5057527;28;20085;-70
2021/10/13 06:57:22;;;;;;;;;;;;;;;;;;5060429;28;19924;-72
2021/10/13 06:59:49;;;;;;;;;;;;;;;;;;5051265;28;19932;-71
2021/10/13 07:02:16;;;;;;;;;;;;;;;;;;5057039;28;19931;-71
2021/10/13 07:04:43;;;;;;;;;;;;;;;;;;5057710;28;20281;-71
2021/10/13 07:07:10;;;;;;;;;;;;;;;;;;5056584;28;19943;-71
2021/10/13 07:09:37;;;;;;;;;;;;;;;;;;5062587;28;19935;-70
2021/10/13 07:12:04;;;;;;;;;;;;;;;;;;5055720;28;20385;-70
2021/10/13 07:14:31;;;;;;;;;;;;;;;;;;5073793;28;19932;-70
2021/10/13 07:16:58;;;;;;;;;;;;;;;;;;5076666;28;20320;-70
2021/10/13 07:19:25;;;;;;;;;;;;;;;;;;5072818;28;19931;-69
2021/10/13 07:21:52;;;;;;;;;;;;;;;;;;5061500;28;19940;-72
2021/10/13 07:24:19;;;;;;;;;;;;;;;;;;5072260;28;19933;-71
2021/10/13 07:26:46;;;;;;;;;;;;;;;;;;5063040;28;19944;-73
2021/10/13 07:29:13;;;;;;;;;;;;;;;;;;5066158;28;20363;-73
2021/10/13 07:31:40;;;;;;;;;;;;;;;;;;5057146;28;19976;-73
2021/10/13 07:34:07;;;;;;;;;;;;;;;;;;5063112;28;20373;-73
2021/10/13 07:36:34;;;;;;;;;;;;;;;;;;5065972;28;19925;-72
2021/10/13 07:39:01;;;;;;;;;;;;;;;;;;5048553;28;19936;-72
2021/10/13 07:41:28;;;;;;;;;;;;;;;;;;5054508;28;20545;-72
2021/10/13 07:43:55;;;;;;;;;;;;;;;;;;5053708;28;19925;-72
2021/10/13 07:46:25;;;;;;;;;;;;;;;;;;5059004;28;19929;-73
2021/10/13 07:48:52;;;;;;;;;;;;;;;;;;5055292;28;19932;-73
2021/10/13 07:51:19;;;;;;;;;;;;;;;;;;5060161;28;19928;-72
2021/10/13 07:53:46;;;;;;;;;;;;;;;;;;5057944;28;19925;-71
2021/10/13 07:56:13;;;;;;;;;;;;;;;;;;5058588;28;19925;-72
2021/10/13 07:58:40;;;;;;;;;;;;;;;;;;5072617;28;19931;-72
2021/10/13 08:01:07;;;;;;;;;;;;;;;;;;5067026;28;19925;-73
2021/10/13 08:03:34;;;;;;;;;;;;;;;;;;5055927;28;19972;-72
2021/10/13 08:06:01;;;;;;;;;;;;;;;;;;5061292;28;19932;-72
2021/10/13 08:08:28;;;;;;;;;;;;;;;;;;5057622;28;20018;-72
2021/10/13 08:10:55;;;;;;;;;;;;;;;;;;5061351;28;20324;-73
2021/10/13 08:13:22;;;;;;;;;;;;;;;;;;5066165;28;19932;-73
2021/10/13 08:15:49;;;;;;;;;;;;;;;;;;5061780;28;19928;-73
2021/10/13 08:18:16;;;;;;;;;;;;;;;;;;5068282;28;19924;-73
2021/10/13 08:20:42;;;;;;;;;;;;;;;;;;5062565;28;19929;-73
2021/10/13 08:23:09;;;;;;;;;;;;;;;;;;5066230;28;20308;-73
2021/10/13 08:25:36;;;;;;;;;;;;;;;;;;5074086;28;20299;-73
2021/10/13 08:28:03;;;;;;;;;;;;;;;;;;5079530;28;19925;-72
2021/10/13 08:30:30;;;;;;;;;;;;;;;;;;5078498;28;20024;-73
2021/10/13 08:32:57;;;;;;;;;;;;;;;;;;5090156;28;19909;-72
2021/10/13 08:35:24;;;;;;;;;;;;;;;;;;5086684;28;19924;-72
2021/10/13 08:37:51;;;;;;;;;;;;;;;;;;5063613;28;20107;-72
2021/10/13 08:40:18;;;;;;;;;;;;;;;;;;5059375;28;19987;-72
2021/10/13 08:42:45;;;;;;;;;;;;;;;;;;5068058;28;19924;-72
2021/10/13 08:45:12;;;;;;;;;;;;;;;;;;5075527;28;19925;-72
2021/10/13 08:47:39;;;;;;;;;;;;;;;;;;5078811;28;19939;-72
2021/10/13 08:50:06;;;;;;;;;;;;;;;;;;5068765;28;19924;-72
2021/10/13 08:52:33;;;;;;;;;;;;;;;;;;5065143;28;19931;-72
2021/10/13 08:55:00;;;;;;;;;;;;;;;;;;5054850;28;19969;-72
2021/10/13 08:57:30;;;;;;;;;;;;;;;;;;5071055;28;20020;-72
2021/10/13 08:59:57;;;;;;;;;;;;;;;;;;5073489;28;19924;-72
2021/10/13 09:02:24;;;;;;;;;;;;;;;;;;5066261;28;19925;-72
2021/10/13 09:04:51;;;;;;;;;;;;;;;;;;5061753;28;19939;-72
2021/10/13 09:07:18;;;;;;;;;;;;;;;;;;5070137;28;19931;-72
2021/10/13 09:09:45;;;;;;;;;;;;;;;;;;5060166;28;20034;-72
2021/10/13 09:12:12;;;;;;;;;;;;;;;;;;5059365;28;20288;-72
2021/10/13 09:14:39;;;;;;;;;;;;;;;;;;5079008;28;20318;-72
2021/10/13 09:17:06;;;;;;;;;;;;;;;;;;5067029;28;20110;-72
2021/10/13 09:19:33;;;;;;;;;;;;;;;;;;5059666;28;19924;-73
2021/10/13 09:22:00;;;;;;;;;;;;;;;;;;5057388;28;19939;-72
2021/10/13 09:24:27;;;;;;;;;;;;;;;;;;5064680;28;20015;-72
2021/10/13 09:26:54;;;;;;;;;;;;;;;;;;5063712;28;19947;-72
2021/10/13 09:29:21;;;;;;;;;;;;;;;;;;5060761;28;20024;-72
2021/10/13 09:31:48;;;;;;;;;;;;;;;;;;5061007;28;19935;-72
2021/10/13 09:34:15;;;;;;;;;;;;;;;;;;5073853;28;19935;-72
2021/10/13 09:36:42;;;;;;;;;;;;;;;;;;5069140;28;19960;-73
2021/10/13 09:39:09;;;;;;;;;;;;;;;;;;5059815;28;19929;-72
2021/10/13 09:41:36;;;;;;;;;;;;;;;;;;5058880;28;20188;-73
2021/10/13 09:44:03;;;;;;;;;;;;;;;;;;5066332;23;19928;-59
2021/10/13 09:46:30;;;;;;;;;;;;;;;;;;5046420;28;19925;-60
2021/10/13 09:48:57;;;;;;;;;;;;;;;;;;5048561;28;19931;-61
2021/10/13 09:51:24;;;;;;;;;;;;;;;;;;5043619;28;19952;-60
2021/10/13 09:53:51;;;;;;;;;;;;;;;;;;5046178;28;20387;-59
2021/10/13 09:56:18;;;;;;;;;;;;;;;;;;5061524;28;19925;-60
2021/10/13 09:58:45;;;;;;;;;;;;;;;;;;5063400;28;19924;-60
2021/10/13 10:01:12;;;;;;;;;;;;;;;;;;5064287;28;20546;-60
2021/10/13 10:03:39;;;;;;;;;;;;;;;;;;5066786;28;19931;-60
2021/10/13 10:06:06;;;;;;;;;;;;;;;;;;5062609;28;19925;-60
2021/10/13 10:08:33;;;;;;;;;;;;;;;;;;5064597;28;20178;-60
2021/10/13 10:11:00;;;;;;;;;;;;;;;;;;5062458;28;19928;-60
2021/10/13 10:13:27;;;;;;;;;;;;;;;;;;5066170;28;19929;-60
2021/10/13 10:15:54;;;;;;;;;;;;;;;;;;5065074;28;20027;-60
2021/10/13 10:18:21;;;;;;;;;;;;;;;;;;5064131;28;19932;-60
2021/10/13 10:20:48;;;;;;;;;;;;;;;;;;5062513;28;20441;-60
2021/10/13 10:23:15;;;;;;;;;;;;;;;;;;5065359;28;19956;-60
2021/10/13 10:25:42;;;;;;;;;;;;;;;;;;5056977;28;20285;-60
2021/10/13 10:28:08;;;;;;;;;;;;;;;;;;5064793;28;20042;-60
2021/10/13 10:30:35;;;;;;;;;;;;;;;;;;5064919;28;19924;-60
2021/10/13 10:33:02;;;;;;;;;;;;;;;;;;5067168;28;20015;-60
2021/10/13 10:35:39;;;;;;;;;;;32.20;59.70;;;;;;5061765;28;19940;-60
2021/10/13 10:38:06;;;;;;;;;;;32.50;60.10;;;;;;5062854;28;19936;-60
2021/10/13 10:40:34;;;;;;;;;;;34.10;57.00;;;;;;5056146;28;20475;-60
2021/10/13 10:43:02;;;;;;;;;;;34.10;53.70;;;;;;5055282;28;19951;-61
2021/10/13 10:45:33;;;;;;;;;;;33.30;54.10;;;;;;5060978;28;20011;-60
2021/10/13 10:48:10;;;;;;;;;;;33.30;54.10;;;;;;5058862;28;19925;-60
2021/10/13 10:50:40;;;;;;;;;;;34.60;52.60;;;;;;5064644;28;19931;-60
2021/10/13 10:53:27;;;;;;;;;;;35.10;51.00;;;;;;5065049;28;19928;-60
2021/10/13 10:55:55;;;;;;;;;;;35.20;50.10;;;;;;5063107;28;19972;-60
2021/10/13 10:58:23;;;;;;;;;;;34.90;50.50;;;;;;5062495;28;19932;-59
2021/10/13 11:01:00;;;;;;;;;;;35.60;48.90;;;;;;5062032;28;19928;-59
2021/10/13 11:03:30;;;;;;;;;;;35.50;48.30;;;;;;5063763;28;19924;-60
2021/10/13 11:05:57;;;;;;;;;;;;;;;;;;5059425;28;19925;-59
2021/10/13 11:08:24;;;;;;;;;;;;;;;;;;5065433;28;19928;-60
2021/10/13 11:10:50;;;;;;;;;;;;;;;;;;5062345;28;19924;-59
2021/10/13 11:13:17;;;;;;;;;;;;;;;;;;5063183;28;19925;-60
2021/10/13 11:15:44;;;;;;;;;;;;;;;;;;5058972;28;20582;-58
2021/10/13 11:18:11;;;;;;;;;;;;;;;;;;5062751;28;19929;-58
2021/10/13 11:20:38;;;;;;;;;;;;;;;;;;5065323;28;19931;-60
2021/10/13 11:23:05;;;;;;;;;;;;;;;;;;5066505;28;19924;-59
2021/10/13 11:25:32;;;;;;;;;;;;;;;;;;5064215;28;20292;-59
2021/10/13 11:27:59;;;;;;;;;;;;;;;;;;5063870;28;20364;-60
2021/10/13 11:30:28;;;;;;;;;;;;;;;;;;5066027;28;19935;-60
2021/10/13 11:32:54;;;;;;;;;;;;;;;;;;5063267;28;20025;-60
2021/10/13 11:35:21;;;;;;;;;;;;;;;;;;5064288;28;19928;-60
2021/10/13 11:37:48;;;;;;;;;;;;;;;;;;5064458;28;20300;-60
2021/10/13 11:40:15;;;;;;;;;;;;;;;;;;5060339;28;20273;-60
2021/10/13 11:42:42;;;;;;;;;;;;;;;;;;5061928;28;20351;-60
2021/10/13 11:45:09;;;;;;;;;;;;;;;;;;5060241;28;19925;-59
2021/10/13 11:47:36;;;;;;;;;;;;;;;;;;5059700;28;19931;-60
2021/10/13 11:50:03;;;;;;;;;;;;;;;;;;5066314;28;20234;-60
2021/10/13 11:52:30;;;;;;;;;;;;;;;;;;5071367;28;19924;-60
2021/10/13 11:54:57;;;;;;;;;;;;;;;;;;5067896;28;20311;-61
2021/10/13 11:57:24;;;;;;;;;;;;;;;;;;5069259;28;19932;-61
2021/10/13 11:59:51;;;;;;;;;;;;;;;;;;5067332;28;20368;-60
2021/10/13 12:02:18;;;;;;;;;;;;;;;;;;5070591;28;20436;-60
2021/10/13 12:04:45;;;;;;;;;;;;;;;;;;5069457;28;19924;-60
2021/10/13 12:07:12;;;;;;;;;;;;;;;;;;5068358;28;19925;-61
2021/10/13 12:09:39;;;;;;;;;;;;;;;;;;5070691;28;20404;-61
2021/10/13 12:12:06;;;;;;;;;;;;;;;;;;5069523;28;19924;-61
2021/10/13 12:14:33;;;;;;;;;;;;;;;;;;5071394;28;19930;-61
2021/10/13 12:17:00;;;;;;;;;;;;;;;;;;5073347;28;19987;-61
2021/10/13 12:19:27;;;;;;;;;;;;;;;;;;5071791;28;20527;-61
2021/10/13 12:21:54;;;;;;;;;;;;;;;;;;5066371;28;19924;-60
2021/10/13 12:24:21;;;;;;;;;;;;;;;;;;5073348;28;20380;-59
2021/10/13 12:26:48;;;;;;;;;;;;;;;;;;5076742;28;19925;-61
2021/10/13 12:29:15;;;;;;;;;;;;;;;;;;5074855;28;19929;-59
2021/10/13 12:31:42;;;;;;;;;;;;;;;;;;5075579;28;19924;-61
2021/10/13 12:34:11;;;;;;;;;;;;;;;;;;5073220;28;19939;-59
2021/10/13 12:36:38;;;;;;;;;;;;;;;;;;5068055;28;19929;-59
2021/10/13 12:39:05;;;;;;;;;;;;;;;;;;5067221;28;19929;-59
2021/10/13 12:41:32;;;;;;;;;;;;;;;;;;5066464;28;19978;-59
2021/10/13 12:43:59;;;;;;;;;;;;;;;;;;5067726;28;19924;-59
2021/10/13 12:46:26;;;;;;;;;;;;;;;;;;5066853;28;19928;-61
2021/10/13 12:48:53;;;;;;;;;;;;;;;;;;5066002;28;20006;-61
2021/10/13 12:51:20;;;;;;;;;;;;;;;;;;5067470;28;19924;-60
2021/10/13 12:53:47;;;;;;;;;;;;;;;;;;5068866;28;20300;-60
2021/10/13 12:56:16;;;;;;;;;;;;;;;;;;5073385;28;19924;-60
2021/10/13 12:58:43;;;;;;;;;;;;;;;;;;5071030;28;19924;-60
2021/10/13 13:01:10;;;;;;;;;;;;;;;;;;5072050;28;19924;-59
2021/10/13 13:03:37;;;;;;;;;;;;;;;;;;5072111;28;19924;-60
2021/10/13 13:06:04;;;;;;;;;;;;;;;;;;5060226;28;19936;-60
2021/10/13 13:08:31;;;;;;;;;;;;;;;;;;5066978;28;19931;-61
2021/10/13 13:10:58;;;;;;;;;;;;;;;;;;5071211;28;19925;-60
2021/10/13 13:13:25;;;;;;;;;;;;;;;;;;5071219;28;20404;-61
2021/10/13 13:15:52;;;;;;;;;;;;;;;;;;5068286;28;19931;-60
2021/10/13 13:18:19;;;;;;;;;;;;;;;;;;5071199;28;20007;-61
2021/10/13 13:20:51;;;;;;;;;;;;;;;;;;5065847;28;19931;-62
2021/10/13 13:23:18;;;;;;;;;;;;;;;;;;5065979;28;20332;-61
2021/10/13 13:25:45;;;;;;;;;;;;;;;;;;5070989;28;19929;-62
2021/10/13 13:28:12;;;;;;;;;;;;;;;;;;5065903;28;19925;-60
2021/10/13 13:30:39;;;;;;;;;;;;;;;;;;5068054;28;19925;-62
2021/10/13 13:33:06;;;;;;;;;;;;;;;;;;5070297;28;19925;-62
2021/10/13 13:35:33;;;;;;;;;;;;;;;;;;5067458;28;19925;-61
2021/10/13 13:38:00;;;;;;;;;;;;;;;;;;5062774;28;20281;-61
2021/10/13 13:40:27;;;;;;;;;;;;;;;;;;5070212;28;19931;-61
2021/10/13 13:42:54;;;;;;;;;;;;;;;;;;5068870;28;19924;-60
2021/10/13 13:45:21;;;;;;;;;;;;;;;;;;5066927;28;19924;-59
2021/10/13 13:47:48;;;;;;;;;;;;;;;;;;5069823;28;19925;-60
2021/10/13 13:50:15;;;;;;;;;;;;;;;;;;5074892;28;19996;-60
2021/10/13 13:52:42;;;;;;;;;;;;;;;;;;5068136;28;20312;-60
2021/10/13 13:55:08;;;;;;;;;;;;;;;;;;5062722;28;19931;-60
2021/10/13 13:57:35;;;;;;;;;;;;;;;;;;5071138;28;20022;-60
2021/10/13 14:00:02;;;;;;;;;;;;;;;;;;5072341;28;19928;-60
2021/10/13 14:02:29;;;;;;;;;;;;;;;;;;5058166;28;20331;-60
2021/10/13 14:04:57;;;;;;;;;;;;;;;;;;5074998;28;20011;-60
2021/10/13 14:07:24;;;;;;;;;;;;;;;;;;5077808;28;19925;-60
2021/10/13 14:09:51;;;;;;;;;;;;;;;;;;5071840;28;19928;-60
2021/10/13 14:12:18;;;;;;;;;;;;;;;;;;5073175;28;19975;-59
2021/10/13 14:14:44;;;;;;;;;;;;;;;;;;5060506;28;19925;-60
2021/10/13 14:17:11;;;;;;;;;;;;;;;;;;5077129;28;19925;-60
2021/10/13 14:19:40;;;;;;;;;;;;;;;;;;5065431;28;20020;-60
2021/10/13 14:22:07;;;;;;;;;;;;;;;;;;5062485;28;19971;-60
2021/10/13 14:24:34;;;;;;;;;;;;;;;;;;5062234;28;19925;-59
2021/10/13 14:27:01;;;;;;;;;;;;;;;;;;5065282;28;19925;-60
2021/10/13 14:29:28;;;;;;;;;;;;;;;;;;5065792;28;19924;-60
2021/10/13 14:31:55;;;;;;;;;;;;;;;;;;5063222;28;20316;-59
2021/10/13 14:34:22;;;;;;;;;;;;;;;;;;5067262;28;19924;-61
2021/10/13 14:36:49;;;;;;;;;;;;;;;;;;5073334;28;19925;-60
2021/10/13 14:39:16;;;;;;;;;;;;;;;;;;5070070;28;19924;-61
2021/10/13 14:41:43;;;;;;;;;;;;;;;;;;5066781;28;19947;-60
2021/10/13 14:44:10;;;;;;;;;;;;;;;;;;5062070;28;19925;-61
2021/10/13 14:46:36;;;;;;;;;;;;;;;;;;5070819;28;20295;-60
2021/10/13 14:49:03;;;;;;;;;;;;;;;;;;5075062;28;19924;-61
2021/10/13 14:51:33;;;;;;;;;;;;;;;;;;5066716;28;19925;-60
2021/10/13 14:54:00;;;;;;;;;;;;;;;;;;5067380;28;19925;-61
2021/10/13 14:56:27;;;;;;;;;;;;;;;;;;5072050;28;20562;-60
2021/10/13 14:58:54;;;;;;;;;;;;;;;;;;5066632;28;19928;-61
2021/10/13 15:01:22;;;;;;;;;;;;;;;;;;5068840;28;20380;-61
2021/10/13 15:03:49;;;;;;;;;;;;;;;;;;5072852;28;19924;-60
2021/10/13 15:06:16;;;;;;;;;;;;;;;;;;5063473;28;19932;-60
2021/10/13 15:08:43;;;;;;;;;;;;;;;;;;5067785;28;19986;-59
2021/10/13 15:11:10;;;;;;;;;;;;;;;;;;5067909;28;19931;-60
2021/10/13 15:13:37;;;;;;;;;;;;;;;;;;5070285;28;19931;-59
2021/10/13 15:16:04;;;;;;;;;;;;;;;;;;5068492;28;19924;-61
2021/10/13 15:18:31;;;;;;;;;;;;;;;;;;5071964;28;19924;-61
2021/10/13 15:20:58;;;;;;;;;;;;;;;;;;5069157;28;19931;-60
2021/10/13 15:23:25;;;;;;;;;;;;;;;;;;5074716;28;19935;-59
2021/10/13 15:25:52;;;;;;;;;;;;;;;;;;5065822;28;19929;-60
2021/10/13 15:28:19;;;;;;;;;;;;;;;;;;5068115;28;20019;-60
2021/10/13 15:30:46;;;;;;;;;;;;;;;;;;5078189;28;19931;-60
2021/10/13 15:33:13;;;;;;;;;;;;;;;;;;5075770;28;19924;-60
2021/10/13 15:35:40;;;;;;;;;;;;;;;;;;5077783;28;19925;-59
2021/10/13 15:38:08;;;;;;;;;;;;;;;;;;5074713;28;19931;-60
2021/10/13 15:40:35;;;;;;;;;;;;;;;;;;5076368;28;20006;-60
2021/10/13 15:43:03;;;;;;;;;;;;;;;;;;5071865;28;20583;-59
2021/10/13 15:45:30;;;;;;;;;;;;;;;;;;5065324;28;19929;-60
2021/10/13 15:47:57;;;;;;;;;;;;;;;;;;5072470;28;19924;-60
2021/10/13 15:50:24;;;;;;;;;;;;;;;;;;5072241;28;20285;-60
2021/10/13 15:52:51;;;;;;;;;;;;;;;;;;5066649;28;19925;-60
2021/10/13 15:55:18;;;;;;;;;;;;;;;;;;5064444;28;20392;-60
2021/10/13 15:57:45;;;;;;;;;;;;;;;;;;5073604;28;19931;-59
2021/10/13 16:00:12;;;;;;;;;;;;;;;;;;5074483;28;19925;-60
2021/10/13 16:02:38;;;;;;;;;;;;;;;;;;5073398;28;19998;-59
2021/10/13 16:05:05;;;;;;;;;;;;;;;;;;5072213;28;20392;-60
2021/10/13 16:07:32;;;;;;;;;;;;;;;;;;5074748;28;19924;-58
2021/10/13 16:10:01;;;;;;;;;;;;;;;;;;5065094;28;19928;-59
2021/10/13 16:12:29;;;;;;;;;;;;;;;;;;5072074;28;20381;-60
2021/10/13 16:14:56;;;;;;;;;;;;;;;;;;5072554;28;20019;-59
2021/10/13 16:17:23;;;;;;;;;;;;;;;;;;5069485;28;19924;-60
2021/10/13 16:19:50;;;;;;;;;;;;;;;;;;5065876;28;19925;-61
2021/10/13 16:22:18;;;;;;;;;;;;;;;;;;5072541;28;19931;-60
2021/10/13 16:24:45;;;;;;;;;;;;;;;;;;5071407;28;19925;-59
2021/10/13 16:27:12;;;;;;;;;;;;;;;;;;5067277;28;19925;-60
2021/10/13 16:29:39;;;;;;;;;;;;;;;;;;5072350;28;19959;-60
2021/10/13 16:32:09;;;;;;;;;;;;;;;;;;5075050;28;19929;-60
2021/10/13 16:34:37;;;;;;;;;;;;;;;;;;5067242;28;19990;-60
2021/10/13 16:37:04;;;;;;;;;;;;;;;;;;5067687;28;19932;-60
2021/10/13 16:39:31;;;;;;;;;;;;;;;;;;5074596;28;19947;-61